地図

経路データ

SID SEASON NUMBER BASIN SUBBASIN NAME ISO_TIME NATURE LAT LON WMO_WIND WMO_PRES WMO_AGENCY TRACK_TYPE DIST2LAND LANDFALL IFLAG USA_AGENCY USA_ATCF_ID USA_LAT USA_LON USA_RECORD USA_STATUS USA_WIND USA_PRES USA_SSHS USA_R34_NE USA_R34_SE USA_R34_SW USA_R34_NW USA_R50_NE USA_R50_SE USA_R50_SW USA_R50_NW USA_R64_NE USA_R64_SE USA_R64_SW USA_R64_NW USA_POCI USA_ROCI USA_RMW USA_EYE TOKYO_LAT TOKYO_LON TOKYO_GRADE TOKYO_WIND TOKYO_PRES TOKYO_R50_DIR TOKYO_R50_LONG TOKYO_R50_SHORT TOKYO_R30_DIR TOKYO_R30_LONG TOKYO_R30_SHORT TOKYO_LAND CMA_LAT CMA_LON CMA_CAT CMA_WIND CMA_PRES HKO_LAT HKO_LON HKO_CAT HKO_WIND HKO_PRES NEWDELHI_LAT NEWDELHI_LON NEWDELHI_GRADE NEWDELHI_WIND NEWDELHI_PRES NEWDELHI_CI NEWDELHI_DP NEWDELHI_POCI REUNION_LAT REUNION_LON REUNION_TYPE REUNION_WIND REUNION_PRES REUNION_TNUM REUNION_CI REUNION_RMW REUNION_R34_NE REUNION_R34_SE REUNION_R34_SW REUNION_R34_NW REUNION_R50_NE REUNION_R50_SE REUNION_R50_SW REUNION_R50_NW REUNION_R64_NE REUNION_R64_SE REUNION_R64_SW REUNION_R64_NW BOM_LAT BOM_LON BOM_TYPE BOM_WIND BOM_PRES BOM_TNUM BOM_CI BOM_RMW BOM_R34_NE BOM_R34_SE BOM_R34_SW BOM_R34_NW BOM_R50_NE BOM_R50_SE BOM_R50_SW BOM_R50_NW BOM_R64_NE BOM_R64_SE BOM_R64_SW BOM_R64_NW BOM_ROCI BOM_POCI BOM_EYE BOM_POS_METHOD BOM_PRES_METHOD NADI_LAT NADI_LON NADI_CAT NADI_WIND NADI_PRES WELLINGTON_LAT WELLINGTON_LON WELLINGTON_WIND WELLINGTON_PRES DS824_LAT DS824_LON DS824_STAGE DS824_WIND DS824_PRES TD9636_LAT TD9636_LON TD9636_STAGE TD9636_WIND TD9636_PRES TD9635_LAT TD9635_LON TD9635_WIND TD9635_PRES TD9635_ROCI NEUMANN_LAT NEUMANN_LON NEUMANN_CLASS NEUMANN_WIND NEUMANN_PRES MLC_LAT MLC_LON MLC_CLASS MLC_WIND MLC_PRES USA_GUST BOM_GUST BOM_GUST_PER REUNION_GUST REUNION_GUST_PER USA_SEAHGT USA_SEARAD_NE USA_SEARAD_SE USA_SEARAD_SW USA_SEARAD_NW STORM_SPEED STORM_DIR
1919245N24123 1919 31 WP MM NOT_NAMED 1919-09-01 15:00:00 NR 24.2000 123.300 spur-split 145 121 __________O___ -1 24.2000 123.300 4 16 350
1919245N24123 1919 31 WP MM NOT_NAMED 1919-09-01 18:00:00 NR 24.9687 123.149 spur-split 110 110 __________P___ -1 25.2105 123.154 4 17 351
1919245N24123 1919 31 WP MM NOT_NAMED 1919-09-01 21:00:00 NR 25.8501 123.007 spur-split 142 142 __________P___ -1 26.1472 123.015 4 18 352
1919245N24123 1919 31 WP MM NOT_NAMED 1919-09-01 22:00:00 NR 26.1495 122.964 spur-split 158 158 __________P___ -1 26.4301 122.972 4 18 353
1919245N24123 1919 31 WP MM NOT_NAMED 1919-09-02 00:00:00 NR 26.7314 122.886 spur-split 210 147 __________P___ -1 26.9352 122.893 4 16 354
1919245N24123 1919 31 WP MM NOT_NAMED 1919-09-02 03:00:00 NR 27.5000 122.800 spur-split 147 121 __________O___ -1 27.5000 122.800 4 11 354
1919245N24123 1919 31 WP MM NOT_NAMED 1919-09-02 06:00:00 NR 27.8138 122.744 spur-split 121 112 __________P___ -1 27.8138 122.744 4 5 352
1919245N24123 1919 31 WP MM NOT_NAMED 1919-09-02 09:00:00 NR 28.0333 122.727 spur-split 112 109 __________P___ -1 28.0333 122.727 4 5 0
1919245N24123 1919 31 WP MM NOT_NAMED 1919-09-02 10:00:00 NR 28.1205 122.729 spur-split 109 107 __________P___ -1 28.1205 122.729 4 7 4
1919245N24123 1919 31 WP MM NOT_NAMED 1919-09-02 12:00:00 NR 28.3610 122.746 spur-split 103 84 __________P___ -1 28.3610 122.746 4 11 4
1919245N24123 1919 31 WP MM NOT_NAMED 1919-09-02 15:00:00 NR 29.0000 122.800 spur-split 80 77 __________O___ -1 29.0000 122.800 4 21 3
1919245N24123 1919 31 WP MM NOT_NAMED 1919-09-02 18:00:00 NR 30.4066 122.889 spur-split 110 95 __________P___ -1 30.4066 122.889 4 31 3
1919245N24123 1919 31 WP MM NOT_NAMED 1919-09-02 21:00:00 NR 32.1080 123.014 spur-split 112 112 __________P___ -1 32.1080 123.014 4 34 4
1919245N24123 1919 31 WP MM NOT_NAMED 1919-09-02 22:00:00 NR 32.6891 123.060 spur-split 152 152 __________P___ -1 32.6891 123.060 4 34 4
1919245N24123 1919 31 WP MM NOT_NAMED 1919-09-03 00:00:00 NR 33.8054 123.157 spur-split 228 209 __________P___ -1 33.8054 123.157 4 30 5
1919245N24123 1919 31 WP MM NOT_NAMED 1919-09-03 03:00:00 NR 35.2000 123.300 spur-split 199 151 __________O___ -1 35.2000 123.300 4 19 2
1919245N24123 1919 31 WP MM NOT_NAMED 1919-09-03 06:00:00 NR 35.7321 123.259 spur-split 151 118 __________P___ -1 35.7321 123.259 4 8 356
1919245N24123 1919 31 WP MM NOT_NAMED 1919-09-03 09:00:00 NR 35.9601 123.231 spur-split 118 114 __________P___ -1 35.9601 123.231 4 4 9
1919245N24123 1919 31 WP MM NOT_NAMED 1919-09-03 12:00:00 NR 36.1583 123.337 spur-split 105 104 __________P___ -1 36.1583 123.337 4 7 31
1919245N24123 1919 31 WP MM NOT_NAMED 1919-09-03 15:00:00 NR 36.6000 123.700 spur-split 111 51 __________O___ -1 36.6000 123.700 4 18 29
1919245N24123 1919 31 WP MM NOT_NAMED 1919-09-03 18:00:00 NR 37.7529 124.460 spur-split 37 0 __________P___ -1 37.7529 124.460 4 29 29
1919245N24123 1919 31 WP MM NOT_NAMED 1919-09-03 21:00:00 NR 39.1566 125.523 spur-split 0 0 __________P___ -1 39.1566 125.523 4 34 32
1919245N24123 1919 31 WP MM NOT_NAMED 1919-09-04 00:00:00 NR 40.6062 126.803 spur-split 0 0 __________P___ -1 40.6062 126.803 4 34 37
1919245N24123 1919 31 WP MM NOT_NAMED 1919-09-04 03:00:00 NR 41.9000 128.200 spur-split 0 0 __________O___ -1 41.9000 128.200 4 30 43
1919245N24123 1919 31 WP MM NOT_NAMED 1919-09-04 06:00:00 NR 42.8026 129.561 spur-split 0 0 __________P___ -1 42.8026 129.561 4 26 52
1919245N24123 1919 31 WP MM NOT_NAMED 1919-09-04 09:00:00 NR 43.5206 130.984 spur-split 0 0 __________P___ -1 43.5206 130.984 4 24 58
1919245N24123 1919 31 WP MM NOT_NAMED 1919-09-04 12:00:00 NR 44.1027 132.415 spur-split 0 0 __________P___ -1 44.1027 132.415 4 23 62
1919245N24123 1919 31 WP MM NOT_NAMED 1919-09-04 15:00:00 NR 44.6000 133.800 spur-split 0 0 __________O___ -1 44.6000 133.800 4 21 62
1919245N24123 1919 31 WP MM NOT_NAMED 1919-09-04 18:00:00 NR 45.1081 135.017 spur-split 0 0 __________P___ -1 45.1081 135.017 4 19 61
1919245N24123 1919 31 WP MM NOT_NAMED 1919-09-04 21:00:00 NR 45.5510 136.187 spur-split 0 0 __________P___ -1 45.5510 136.187 4 19 63
1919245N24123 1919 31 WP MM NOT_NAMED 1919-09-05 00:00:00 NR 45.9444 137.387 spur-split 0 0 __________P___ -1 45.9444 137.387 4 19 67
1919245N24123 1919 31 WP MM NOT_NAMED 1919-09-05 03:00:00 NR 46.3000 138.700 spur-split 39 39 __________O___ -1 46.3000 138.700 4 21 71
1919245N24123 1919 31 WP MM NOT_NAMED 1919-09-05 06:00:00 NR 46.6401 140.256 spur-split 114 15 __________P___ -1 46.6401 140.256 4 23 74
1919245N24123 1919 31 WP MM NOT_NAMED 1919-09-05 09:00:00 NR 46.9346 141.933 spur-split 7 0 __________P___ -1 46.9346 141.933 4 24 77
1919245N24123 1919 31 WP MM NOT_NAMED 1919-09-05 12:00:00 NR 47.1859 143.669 spur-split 50 50 __________P___ -1 47.1859 143.669 4 24 79
1919245N24123 1919 31 WP MM NOT_NAMED 1919-09-05 15:00:00 NR 47.4000 145.400 spur-split 142 142 __________O___ -1 47.4000 145.400 4 23 80
1919245N24123 1919 31 WP MM NOT_NAMED 1919-09-05 18:00:00 NR 47.5852 147.079 spur-split 209 209 __________P___ -1 47.5852 147.079 4 23 81
1919245N24123 1919 31 WP MM NOT_NAMED 1919-09-05 21:00:00 NR 47.7458 148.709 spur-split 210 190 __________P___ -1 47.7458 148.709 4 22 82
1919245N24123 1919 31 WP MM NOT_NAMED 1919-09-06 00:00:00 NR 47.8838 150.311 spur-split 199 199 __________P___ -1 47.8838 150.311 4 21 83
1919245N24123 1919 31 WP MM NOT_NAMED 1919-09-06 03:00:00 NR 48.0000 151.900 spur-split 239 __________O___ -1 48.0000 151.900 4 21 84

デジタル台風データ・検索

IBTrACS Databaseについて

本データベースは、米国NOAAが公開する1842年以降の世界の熱帯低気圧のベストトラックデータアーカイブInternational Best Track Archive for Climate Stewardship (IBTrACS)を、ウェブで閲覧しやすい形式に変換したものです。

最終更新日:2021-10-19